Time;durP1;ratioP1;P1;durP2;ratioP2;P2;SDS_P1;SDS_P2;PMS_P1;PMS_P2;Temp;Humidity;BMP_temperature;BMP_pressure;BME280_temperature;BME280_humidity;BME280_pressure;Samples;Min_cycle;Max_cycle;Signal;HPM_P1;HPM_P2
2024/04/02 00:01:46;;;;;;;0.63;0.63;;;8.60;99.90;;;;;;5065171;28;20215;-71
2024/04/02 00:04:13;;;;;;;0.93;0.70;;;8.50;99.90;;;;;;5067126;28;20203;-72
2024/04/02 00:06:39;;;;;;;0.63;0.50;;;8.50;99.90;;;;;;5064386;28;20801;-72
2024/04/02 00:09:05;;;;;;;1.50;0.70;;;8.30;99.90;;;;;;5067245;28;20472;-73
2024/04/02 00:11:31;;;;;;;0.73;0.57;;;8.30;99.90;;;;;;5066675;28;20215;-72
2024/04/02 00:13:58;;;;;;;0.70;0.50;;;8.20;99.90;;;;;;5049524;28;20251;-72
2024/04/02 00:16:24;;;;;;;1.20;0.60;;;8.20;99.90;;;;;;5067027;28;20223;-72
2024/04/02 00:18:50;;;;;;;0.60;0.60;;;8.30;99.90;;;;;;5066640;28;20504;-71
2024/04/02 00:21:16;;;;;;;1.00;0.60;;;8.40;99.90;;;;;;5063159;28;20723;-72
2024/04/02 00:23:42;;;;;;;0.70;0.70;;;8.50;99.90;;;;;;5058404;28;20270;-72
2024/04/02 00:26:07;;;;;;;0.80;0.80;;;8.50;99.90;;;;;;5045901;28;20215;-71
2024/04/02 00:28:33;;;;;;;0.63;0.60;;;8.20;99.90;;;;;;5058892;28;20485;-72
2024/04/02 00:31:00;;;;;;;0.53;0.53;;;8.10;99.90;;;;;;5043468;28;20242;-71
2024/04/02 00:33:27;;;;;;;0.40;0.40;;;8.00;99.90;;;;;;5057941;28;20298;-71
2024/04/02 00:36:06;;;;;;;1.67;0.70;;;7.90;99.90;;;;;;5059608;28;20518;-72
2024/04/02 00:38:32;;;;;;;0.77;0.70;;;7.90;99.90;;;;;;5058281;28;20460;-71
2024/04/02 00:40:58;;;;;;;1.10;1.00;;;7.80;99.90;;;;;;5054879;28;20504;-70
2024/04/02 00:43:25;;;;;;;0.90;0.70;;;7.80;99.90;;;;;;5053230;28;20477;-71
2024/04/02 00:45:51;;;;;;;1.57;0.50;;;7.90;99.90;;;;;;5060739;28;20465;-71
2024/04/02 00:48:18;;;;;;;0.53;0.53;;;7.90;99.90;;;;;;5061594;28;20527;-72
2024/04/02 00:50:45;;;;;;;1.27;0.80;;;7.80;99.90;;;;;;5056517;28;20472;-71
2024/04/02 00:53:12;;;;;;;0.80;0.80;;;7.80;99.90;;;;;;5057680;28;20461;-72
2024/04/02 00:55:41;;;;;;;1.60;0.87;;;7.80;99.90;;;;;;5056805;28;20462;-71
2024/04/02 00:58:06;;;;;;;1.20;0.90;;;7.70;99.90;;;;;;5057560;28;20463;-71
2024/04/02 01:00:35;;;;;;;1.13;0.80;;;7.70;99.90;;;;;;5055459;28;20486;-71
2024/04/02 01:03:02;;;;;;;0.60;0.50;;;7.70;99.90;;;;;;5057325;28;20215;-72
2024/04/02 01:05:28;;;;;;;1.00;0.87;;;7.80;99.90;;;;;;5058695;28;20522;-71
2024/04/02 01:07:53;;;;;;;0.70;0.70;;;7.80;99.90;;;;;;5058348;28;20461;-71
2024/04/02 01:10:19;;;;;;;0.83;0.70;;;7.80;99.90;;;;;;5043465;28;20215;-71
2024/04/02 01:12:45;;;;;;;0.60;0.60;;;7.80;99.90;;;;;;5056069;28;20280;-71
2024/04/02 01:15:10;;;;;;;1.80;1.00;;;7.80;99.90;;;;;;5059893;28;20240;-70
2024/04/02 01:17:36;;;;;;;0.77;0.77;;;7.70;99.90;;;;;;5041504;28;20230;-70
2024/04/02 01:20:03;;;;;;;0.60;0.60;;;7.70;99.90;;;;;;5056946;28;20231;-71
2024/04/02 01:22:30;;;;;;;1.13;0.90;;;7.70;99.90;;;;;;5055690;28;20279;-71
2024/04/02 01:24:59;;;;;;;0.90;0.77;;;7.70;99.90;;;;;;5059084;28;20468;-70
2024/04/02 01:27:26;;;;;;;0.50;0.50;;;7.70;99.90;;;;;;5052096;28;20962;-71
2024/04/02 01:29:51;;;;;;;0.93;0.83;;;7.70;99.90;;;;;;5042534;28;20458;-71
2024/04/02 01:32:17;;;;;;;1.93;0.70;;;7.60;99.90;;;;;;5060803;28;20617;-72
2024/04/02 01:34:43;;;;;;;1.90;0.67;;;7.60;99.90;;;;;;5054425;28;20298;-71
2024/04/02 01:37:08;;;;;;;0.83;0.83;;;7.60;99.90;;;;;;5058420;28;20223;-72
2024/04/02 01:39:34;;;;;;;2.93;0.60;;;7.60;99.90;;;;;;5056455;28;20234;-71
2024/04/02 01:42:01;;;;;;;1.07;0.87;;;7.60;99.90;;;;;;5057884;28;20208;-70
2024/04/02 01:44:26;;;;;;;1.00;0.80;;;7.60;99.90;;;;;;5057398;28;20514;-70
2024/04/02 01:46:52;;;;;;;0.90;0.80;;;7.60;99.90;;;;;;5058371;28;20227;-73
2024/04/02 01:49:18;;;;;;;0.60;0.60;;;7.60;99.90;;;;;;5029475;28;20301;-72
2024/04/02 01:51:45;;;;;;;0.50;0.50;;;7.60;99.90;;;;;;5038407;28;20302;-70
2024/04/02 01:54:11;;;;;;;1.47;1.20;;;7.60;99.90;;;;;;5056568;28;20723;-71
2024/04/02 01:56:36;;;;;;;1.63;1.23;;;7.60;99.90;;;;;;5053733;28;20457;-72
2024/04/02 01:59:02;;;;;;;1.30;0.70;;;7.60;99.90;;;;;;5057289;28;20300;-69
2024/04/02 02:01:28;;;;;;;0.80;0.67;;;7.60;99.90;;;;;;5055262;28;20264;-71
2024/04/02 02:03:53;;;;;;;1.03;0.90;;;7.60;99.90;;;;;;5042704;28;20219;-71
2024/04/02 02:06:19;;;;;;;1.10;1.00;;;7.60;99.90;;;;;;5058603;28;20211;-71
2024/04/02 02:08:44;;;;;;;1.20;1.10;;;7.60;99.90;;;;;;5041435;28;20321;-70
2024/04/02 02:11:10;;;;;;;1.53;0.90;;;7.60;99.90;;;;;;5057295;28;20298;-70
2024/04/02 02:13:36;;;;;;;1.07;0.97;;;7.70;99.90;;;;;;5052023;28;20231;-71
2024/04/02 02:16:02;;;;;;;1.83;1.30;;;7.70;99.90;;;;;;5051235;28;20230;-70
2024/04/02 02:18:29;;;;;;;0.80;0.80;;;7.80;99.90;;;;;;5058440;28;20215;-72
2024/04/02 02:20:56;;;;;;;1.00;0.90;;;7.70;99.90;;;;;;5056468;28;20485;-73
2024/04/02 02:23:22;;;;;;;2.00;0.73;;;7.90;99.90;;;;;;5041381;28;20454;-70
2024/04/02 02:25:48;;;;;;;3.93;1.70;;;7.90;99.90;;;;;;5056763;28;21053;-72
2024/04/02 02:28:14;;;;;;;1.90;1.13;;;7.80;99.90;;;;;;5058442;28;21034;-71
2024/04/02 02:30:40;;;;;;;1.30;1.20;;;7.70;99.90;;;;;;5054031;28;20460;-72
2024/04/02 02:33:06;;;;;;;1.20;1.10;;;7.70;99.90;;;;;;5039365;28;20826;-71
2024/04/02 02:35:31;;;;;;;7.23;1.77;;;7.70;99.90;;;;;;5053900;28;20273;-71
2024/04/02 02:37:58;;;;;;;1.53;1.40;;;7.80;99.90;;;;;;5054459;28;20307;-69
2024/04/02 02:40:24;;;;;;;1.77;1.50;;;7.70;99.90;;;;;;5059643;28;20229;-71
2024/04/02 02:42:49;;;;;;;2.73;1.40;;;7.70;99.90;;;;;;5030209;28;20460;-70
2024/04/02 02:45:15;;;;;;;2.80;1.37;;;7.70;99.90;;;;;;5059303;28;20235;-71
2024/04/02 02:47:40;;;;;;;2.37;1.70;;;7.60;99.90;;;;;;5055770;28;20228;-72
2024/04/02 02:50:06;;;;;;;5.73;1.50;;;7.60;99.90;;;;;;5057560;28;20220;-71
2024/04/02 02:52:32;;;;;;;1.33;1.23;;;7.60;99.90;;;;;;5055821;28;20264;-74
2024/04/02 02:54:58;;;;;;;1.67;1.57;;;7.70;99.90;;;;;;5057497;28;20693;-71
2024/04/02 02:57:23;;;;;;;1.50;1.40;;;7.80;99.90;;;;;;5062451;28;20215;-70
2024/04/02 02:59:49;;;;;;;1.57;1.47;;;7.70;99.90;;;;;;5058986;28;20226;-72
2024/04/02 03:02:15;;;;;;;1.30;1.20;;;7.70;99.90;;;;;;5063358;28;20218;-71
2024/04/02 03:04:41;;;;;;;3.23;1.70;;;7.70;99.90;;;;;;5055394;28;20214;-70
2024/04/02 03:07:06;;;;;;;1.77;1.37;;;7.80;99.90;;;;;;5060205;28;20821;-71
2024/04/02 03:09:41;;;;;;;1.70;1.20;;;7.80;99.90;;;;;;5041094;28;20242;-71
2024/04/02 03:12:07;;;;;;;1.70;1.60;;;7.80;99.90;;;;;;5060872;28;20218;-71
2024/04/02 03:14:32;;;;;;;1.33;1.23;;;7.90;99.90;;;;;;5056099;28;20556;-71
2024/04/02 03:16:58;;;;;;;1.70;1.23;;;7.90;99.90;;;;;;5057898;28;20465;-70
2024/04/02 03:19:24;;;;;;;1.40;1.30;;;7.90;99.90;;;;;;5056924;28;20748;-71
2024/04/02 03:21:49;;;;;;;1.97;1.50;;;7.90;99.90;;;;;;5058694;28;20219;-72
2024/04/02 03:24:15;;;;;;;1.20;1.10;;;7.90;99.90;;;;;;5065108;28;20235;-72
2024/04/02 03:26:41;;;;;;;2.30;1.67;;;8.00;99.90;;;;;;5060966;28;20242;-72
2024/04/02 03:29:06;;;;;;;4.50;1.90;;;8.10;99.90;;;;;;5063259;28;20298;-70
2024/04/02 03:31:32;;;;;;;2.17;1.70;;;8.00;99.90;;;;;;5062245;28;20217;-71
2024/04/02 03:33:58;;;;;;;1.30;1.20;;;8.10;99.90;;;;;;5048936;28;20249;-72
2024/04/02 03:36:23;;;;;;;0.90;0.90;;;8.10;99.90;;;;;;5046574;28;20215;-72
2024/04/02 03:38:49;;;;;;;1.50;1.40;;;8.10;99.90;;;;;;5045693;28;20241;-70
2024/04/02 03:41:16;;;;;;;2.20;1.07;;;8.10;99.90;;;;;;5064962;28;20250;-72
2024/04/02 03:43:42;;;;;;;0.73;0.70;;;8.10;99.90;;;;;;5063137;28;20214;-72
2024/04/02 03:46:09;;;;;;;1.40;0.97;;;8.00;99.90;;;;;;5064784;28;20466;-72
2024/04/02 03:48:35;;;;;;;1.00;1.00;;;8.00;99.90;;;;;;5068725;28;20526;-72
2024/04/02 03:51:01;;;;;;;1.20;1.10;;;8.10;99.90;;;;;;5072063;28;20532;-71
2024/04/02 03:53:26;;;;;;;1.40;1.30;;;8.00;99.90;;;;;;5062769;28;21026;-72
2024/04/02 03:55:59;;;;;;;3.23;1.37;;;8.10;99.90;;;;;;5065976;28;20238;-70
2024/04/02 03:58:26;;;;;;;0.90;0.87;;;8.00;99.90;;;;;;5061506;28;20214;-71
2024/04/02 04:00:56;;;;;;;1.10;1.00;;;7.90;99.90;;;;;;5066155;28;20475;-71
2024/04/02 04:03:26;;;;;;;1.20;0.90;;;8.00;99.90;;;;;;5079873;28;20462;-71
2024/04/02 04:06:05;;;;;;;1.30;1.20;;;8.00;99.90;;;;;;5065765;28;20461;-71
2024/04/02 04:08:33;;;;;;;1.10;1.00;;;8.00;99.90;;;;;;5062617;28;20473;-70
2024/04/02 04:10:59;;;;;;;1.30;1.13;;;8.00;99.90;;;;;;5062374;28;20477;-72
2024/04/02 04:13:25;;;;;;;1.93;1.83;;;8.00;99.90;;;;;;5062068;28;20458;-72
2024/04/02 04:15:55;;;;;;;1.80;1.60;;;7.90;99.90;;;;;;5068100;28;20466;-72
2024/04/02 04:18:22;;;;;;;0.80;0.80;;;7.90;99.90;;;;;;5064699;28;20239;-72
2024/04/02 04:21:01;;;;;;;1.53;1.10;;;7.90;99.90;;;;;;5067584;28;20468;-72
2024/04/02 04:23:27;;;;;;;2.97;1.80;;;8.00;99.90;;;;;;5071938;28;20453;-72
2024/04/02 04:25:54;;;;;;;1.53;1.43;;;8.00;99.90;;;;;;5074432;28;20468;-72
2024/04/02 04:28:19;;;;;;;2.33;1.57;;;8.00;99.90;;;;;;5071760;28;20455;-72
2024/04/02 04:30:54;;;;;;;3.40;1.90;;;8.10;99.90;;;;;;5070037;28;20442;-72
2024/04/02 04:33:21;;;;;;;2.80;2.10;;;8.10;99.90;;;;;;5067131;28;20223;-72
2024/04/02 04:35:47;;;;;;;1.83;1.73;;;8.10;99.90;;;;;;5064657;28;20827;-72
2024/04/02 04:38:13;;;;;;;2.23;1.90;;;8.10;99.90;;;;;;5063722;28;20508;-72
2024/04/02 04:40:40;;;;;;;3.80;2.10;;;8.10;99.90;;;;;;5066447;28;20470;-72
2024/04/02 04:43:06;;;;;;;2.20;2.00;;;8.10;99.90;;;;;;5066247;28;20458;-71
2024/04/02 04:45:32;;;;;;;2.37;1.90;;;8.10;99.90;;;;;;5070640;28;20514;-72
2024/04/02 04:47:58;;;;;;;1.90;1.80;;;8.20;99.90;;;;;;5048677;28;20275;-71
2024/04/02 04:50:24;;;;;;;3.50;1.93;;;8.10;99.90;;;;;;5045006;28;20219;-72
2024/04/02 04:52:51;;;;;;;2.03;1.83;;;8.10;99.90;;;;;;5050061;28;20859;-72
2024/04/02 04:55:17;;;;;;;2.03;1.83;;;8.10;99.90;;;;;;5069590;28;20286;-72
2024/04/02 04:57:43;;;;;;;2.30;2.10;;;8.10;99.90;;;;;;5059821;28;20540;-72
2024/04/02 05:00:09;;;;;;;4.20;2.33;;;8.10;99.90;;;;;;5067594;28;20216;-72
2024/04/02 05:02:34;;;;;;;2.97;1.80;;;8.10;99.90;;;;;;5068410;28;20235;-72
2024/04/02 05:05:00;;;;;;;2.00;1.70;;;8.10;99.90;;;;;;5069723;28;20465;-71
2024/04/02 05:07:26;;;;;;;2.83;1.70;;;8.10;99.90;;;;;;5069051;28;20335;-72
2024/04/02 05:09:52;;;;;;;5.60;2.00;;;8.10;99.90;;;;;;5068183;28;20226;-70
2024/04/02 05:12:18;;;;;;;3.17;2.00;;;8.10;99.90;;;;;;5067962;28;20223;-72
2024/04/02 05:14:44;;;;;;;3.00;2.10;;;8.10;99.90;;;;;;5066103;28;20464;-72
2024/04/02 05:17:10;;;;;;;3.27;2.03;;;8.00;99.90;;;;;;5064752;28;20465;-72
2024/04/02 05:19:36;;;;;;;2.70;1.97;;;8.10;99.90;;;;;;5067679;28;20467;-72
2024/04/02 05:22:01;;;;;;;2.43;2.00;;;8.00;99.90;;;;;;5067662;28;20238;-72
2024/04/02 05:24:27;;;;;;;2.10;1.90;;;8.00;99.90;;;;;;5067615;28;20305;-71
2024/04/02 05:26:52;;;;;;;2.40;1.43;;;8.00;99.90;;;;;;5056650;28;20297;-72
2024/04/02 05:29:18;;;;;;;3.10;1.87;;;8.00;99.90;;;;;;5060966;28;20771;-72
2024/04/02 05:31:44;;;;;;;1.40;1.30;;;8.00;99.90;;;;;;5057990;28;20302;-72
2024/04/02 05:34:09;;;;;;;2.37;1.50;;;8.00;99.90;;;;;;5058361;28;20214;-72
2024/04/02 05:36:35;;;;;;;1.87;1.70;;;8.00;99.90;;;;;;5055366;28;20227;-71
2024/04/02 05:39:01;;;;;;;1.17;1.17;;;8.10;99.90;;;;;;5061027;28;20208;-72
2024/04/02 05:41:26;;;;;;;1.50;1.33;;;8.10;99.90;;;;;;5035650;28;20223;-72
2024/04/02 05:43:52;;;;;;;1.30;1.20;;;8.20;99.90;;;;;;5060756;28;20223;-71
2024/04/02 05:46:18;;;;;;;2.00;1.10;;;8.20;99.90;;;;;;5060020;28;20219;-72
2024/04/02 05:48:46;;;;;;;2.77;1.60;;;8.20;99.90;;;;;;5056315;28;20700;-72
2024/04/02 05:51:12;;;;;;;1.30;1.20;;;8.20;99.90;;;;;;5057911;28;20773;-71
2024/04/02 05:53:38;;;;;;;2.10;1.10;;;8.20;99.90;;;;;;5057744;28;20554;-72
2024/04/02 05:56:05;;;;;;;1.50;1.30;;;8.30;99.90;;;;;;5058451;28;20325;-72
2024/04/02 05:58:31;;;;;;;1.27;1.20;;;8.30;99.90;;;;;;5060447;28;20469;-72
2024/04/02 06:01:07;;;;;;;1.70;1.60;;;8.30;99.90;;;;;;5067346;28;20531;-71
2024/04/02 06:03:33;;;;;;;3.40;1.37;;;8.30;99.90;;;;;;5053733;28;20449;-72
2024/04/02 06:05:59;;;;;;;1.27;1.07;;;8.30;99.90;;;;;;5056261;28;20842;-72
2024/04/02 06:08:25;;;;;;;1.77;1.47;;;8.30;99.90;;;;;;5060192;28;20740;-72
2024/04/02 06:10:51;;;;;;;1.47;1.37;;;8.40;99.90;;;;;;5048101;28;20489;-72
2024/04/02 06:13:16;;;;;;;3.67;1.83;;;8.40;99.90;;;;;;5066868;28;20321;-72
2024/04/02 06:15:42;;;;;;;2.63;1.80;;;8.40;99.90;;;;;;5066207;28;20708;-72
2024/04/02 06:18:09;;;;;;;2.77;1.27;;;8.40;99.90;;;;;;5066866;28;20219;-72
2024/04/02 06:20:34;;;;;;;1.70;1.03;;;8.40;99.90;;;;;;5065458;28;20230;-72
2024/04/02 06:23:00;;;;;;;1.50;1.40;;;8.40;99.90;;;;;;5067692;28;20540;-72
2024/04/02 06:25:26;;;;;;;2.23;1.23;;;8.40;99.90;;;;;;5051298;28;20238;-72
2024/04/02 06:27:52;;;;;;;1.30;1.20;;;8.40;99.90;;;;;;5067630;28;20603;-72
2024/04/02 06:30:17;;;;;;;2.37;1.40;;;8.50;99.90;;;;;;5082938;28;20304;-70
2024/04/02 06:32:43;;;;;;;1.67;1.20;;;8.50;99.90;;;;;;5061861;28;20250;-72
2024/04/02 06:35:09;;;;;;;1.53;1.43;;;8.50;99.90;;;;;;5065667;28;20703;-72
2024/04/02 06:37:34;;;;;;;2.87;1.43;;;8.50;99.90;;;;;;5064973;28;20234;-72
2024/04/02 06:40:01;;;;;;;1.10;1.00;;;8.50;99.90;;;;;;5065946;28;20223;-72
2024/04/02 06:42:27;;;;;;;3.73;1.40;;;8.50;99.90;;;;;;5067303;28;20215;-72
2024/04/02 06:44:54;;;;;;;1.47;1.37;;;8.50;99.90;;;;;;5068146;28;20498;-72
2024/04/02 06:47:20;;;;;;;1.20;1.10;;;8.60;99.90;;;;;;5066979;28;20219;-72
2024/04/02 06:49:46;;;;;;;2.00;1.20;;;8.60;99.90;;;;;;5065573;28;20461;-72
2024/04/02 06:52:12;;;;;;;1.57;1.20;;;8.60;99.90;;;;;;5064160;28;20222;-72
2024/04/02 06:54:37;;;;;;;1.30;1.10;;;8.60;99.90;;;;;;5051638;28;20268;-72
2024/04/02 06:57:03;;;;;;;1.53;1.27;;;8.70;99.90;;;;;;5063966;28;20222;-71
2024/04/02 06:59:29;;;;;;;1.60;1.20;;;8.70;99.90;;;;;;5066499;28;20215;-73
2024/04/02 07:01:55;;;;;;;1.63;1.53;;;8.70;99.90;;;;;;5063942;28;20231;-73
2024/04/02 07:04:20;;;;;;;1.43;1.30;;;8.80;99.90;;;;;;5065101;28;20445;-72
2024/04/02 07:06:46;;;;;;;3.00;1.77;;;8.80;99.90;;;;;;5066415;28;20225;-73
2024/04/02 07:09:11;;;;;;;2.63;1.83;;;8.90;99.90;;;;;;5064707;28;20672;-73
2024/04/02 07:11:37;;;;;;;3.00;1.50;;;9.00;99.90;;;;;;5065077;28;20226;-72
2024/04/02 07:14:03;;;;;;;1.87;1.40;;;9.00;99.90;;;;;;5065462;28;20788;-72
2024/04/02 07:16:28;;;;;;;5.43;1.50;;;9.00;99.90;;;;;;5049017;28;20303;-72
2024/04/02 07:18:54;;;;;;;2.40;1.43;;;9.00;99.90;;;;;;5066492;28;20219;-72
2024/04/02 07:21:20;;;;;;;3.37;1.50;;;9.00;99.90;;;;;;5066122;28;20237;-72
2024/04/02 07:23:45;;;;;;;3.23;1.30;;;9.00;99.90;;;;;;5053296;28;20228;-72
2024/04/02 07:26:11;;;;;;;7.47;1.73;;;9.10;99.90;;;;;;5046119;28;20239;-72
2024/04/02 07:28:36;;;;;;;2.83;1.43;;;9.10;99.90;;;;;;5056218;28;20233;-73
2024/04/02 07:31:03;;;;;;;7.50;1.87;;;9.10;99.90;;;;;;5057483;28;20221;-72
2024/04/02 07:33:28;;;;;;;4.03;2.17;;;9.20;99.90;;;;;;5041985;28;20218;-72
2024/04/02 07:35:58;;;;;;;1.90;1.33;;;9.30;99.90;;;;;;5057511;28;20565;-72
2024/04/02 07:38:24;;;;;;;7.13;2.03;;;9.40;99.90;;;;;;5060031;28;20230;-72
2024/04/02 07:40:50;;;;;;;6.20;2.33;;;9.40;99.90;;;;;;5056628;28;20480;-72
2024/04/02 07:43:16;;;;;;;7.20;1.80;;;9.40;99.90;;;;;;5058166;28;20454;-72
2024/04/02 07:45:49;;;;;;;9.50;2.53;;;9.40;99.90;;;;;;5055428;28;20219;-72
2024/04/02 07:48:14;;;;;;;3.93;2.10;;;9.50;99.90;;;;;;5057166;28;20457;-72
2024/04/02 07:50:40;;;;;;;5.97;2.70;;;9.60;99.90;;;;;;5055696;28;20460;-72
2024/04/02 07:53:06;;;;;;;4.77;2.63;;;9.60;99.90;;;;;;5057260;28;20227;-72
2024/04/02 07:55:31;;;;;;;3.93;1.77;;;9.60;99.90;;;;;;5055423;28;20222;-73
2024/04/02 07:57:57;;;;;;;1.67;1.37;;;9.60;99.90;;;;;;5043682;28;20219;-72
2024/04/02 08:00:22;;;;;;;4.10;1.87;;;9.60;99.90;;;;;;5059603;28;20223;-71
2024/04/02 08:02:48;;;;;;;1.30;1.20;;;9.70;99.90;;;;;;5055382;28;20211;-72
2024/04/02 08:05:14;;;;;;;5.73;1.93;;;9.60;99.90;;;;;;5058973;28;20219;-73
2024/04/02 08:07:49;;;;;;;1.83;1.63;;;9.60;99.90;;;;;;5054693;28;20218;-72
2024/04/02 08:10:15;;;;;;;4.53;1.87;;;9.70;99.90;;;;;;5059012;28;20456;-72
2024/04/02 08:12:41;;;;;;;2.30;1.80;;;9.70;99.90;;;;;;5060136;28;20468;-72
2024/04/02 08:15:07;;;;;;;3.23;2.17;;;9.70;99.90;;;;;;5060583;28;20473;-73
2024/04/02 08:17:34;;;;;;;6.90;2.00;;;9.70;99.90;;;;;;5043316;28;20495;-72
2024/04/02 08:20:00;;;;;;;2.30;1.73;;;9.70;99.90;;;;;;5062965;28;20570;-72
2024/04/02 08:22:25;;;;;;;2.80;1.93;;;9.70;99.90;;;;;;5063803;28;20450;-72
2024/04/02 08:24:53;;;;;;;4.13;1.27;;;9.70;99.90;;;;;;5059744;28;20452;-72
2024/04/02 08:27:19;;;;;;;2.93;1.27;;;9.80;99.90;;;;;;5060853;28;20237;-73
2024/04/02 08:29:45;;;;;;;8.53;1.70;;;9.90;99.90;;;;;;5059552;28;20457;-72
2024/04/02 08:32:10;;;;;;;5.90;1.90;;;10.00;99.90;;;;;;5053095;28;20469;-71
2024/04/02 08:34:36;;;;;;;1.40;0.93;;;10.00;99.90;;;;;;5059660;28;20246;-72
2024/04/02 08:37:02;;;;;;;2.27;1.50;;;10.10;99.90;;;;;;5061042;28;20219;-69
2024/04/02 08:39:28;;;;;;;5.20;1.50;;;10.10;99.90;;;;;;5060247;28;20633;-72
2024/04/02 08:41:58;;;;;;;5.80;1.90;;;10.00;99.90;;;;;;5045922;28;20292;-72
2024/04/02 08:44:24;;;;;;;4.93;1.60;;;10.00;99.90;;;;;;5044866;28;20234;-72
2024/04/02 08:46:50;;;;;;;3.00;1.43;;;10.10;99.90;;;;;;5042218;28;20470;-72
2024/04/02 08:49:18;;;;;;;3.73;1.87;;;10.20;99.90;;;;;;5055888;28;20230;-72
2024/04/02 08:51:44;;;;;;;1.60;1.47;;;10.40;99.90;;;;;;5058141;28;20470;-72
2024/04/02 08:54:10;;;;;;;4.00;1.47;;;10.50;99.90;;;;;;5049596;28;20476;-73
2024/04/02 08:56:35;;;;;;;7.97;1.53;;;10.60;99.90;;;;;;5060334;28;20235;-72
2024/04/02 08:59:03;;;;;;;1.77;1.20;;;10.70;99.90;;;;;;5061914;28;20246;-71
2024/04/02 09:01:30;;;;;;;2.83;1.57;;;10.70;99.90;;;;;;5039521;28;20219;-72
2024/04/02 09:03:59;;;;;;;7.10;1.13;;;10.70;99.90;;;;;;5061509;28;20462;-72
2024/04/02 09:06:24;;;;;;;1.90;1.27;;;10.60;99.90;;;;;;5059360;28;20501;-71
2024/04/02 09:08:52;;;;;;;3.13;1.40;;;10.60;99.90;;;;;;5043858;28;20997;-72
2024/04/02 09:11:18;;;;;;;3.97;2.10;;;10.70;99.90;;;;;;5059802;28;20223;-72
2024/04/02 09:13:44;;;;;;;2.33;1.43;;;10.70;99.90;;;;;;5039341;28;20485;-73
2024/04/02 09:16:13;;;;;;;4.07;1.70;;;10.60;99.90;;;;;;5062976;28;20288;-73
2024/04/02 09:18:42;;;;;;;5.57;1.87;;;10.60;99.90;;;;;;5057596;28;20465;-72
2024/04/02 09:21:11;;;;;;;3.77;1.30;;;10.50;99.90;;;;;;5060118;28;20469;-70
2024/04/02 09:23:36;;;;;;;1.90;1.30;;;10.50;99.90;;;;;;5054545;28;20816;-73
2024/04/02 09:26:02;;;;;;;5.37;1.23;;;10.40;99.90;;;;;;5042887;28;20514;-71
2024/04/02 09:28:28;;;;;;;2.80;1.43;;;10.30;99.90;;;;;;5057891;28;20223;-71
2024/04/02 09:30:53;;;;;;;1.60;1.50;;;10.40;99.90;;;;;;5061556;28;20219;-71
2024/04/02 09:33:19;;;;;;;4.60;1.80;;;10.50;99.90;;;;;;5042873;28;20598;-71
2024/04/02 09:35:59;;;;;;;5.57;2.10;;;10.60;99.90;;;;;;5056371;28;20368;-72
2024/04/02 09:38:27;;;;;;;2.27;1.57;;;10.60;99.90;;;;;;5058069;28;20261;-72
2024/04/02 09:40:54;;;;;;;3.17;1.97;;;10.60;99.90;;;;;;5059186;28;20900;-72
2024/04/02 09:43:20;;;;;;;3.80;1.97;;;10.50;99.90;;;;;;5059567;28;20482;-71
2024/04/02 09:45:48;;;;;;;3.47;1.90;;;10.50;99.90;;;;;;5056610;28;20559;-72
2024/04/02 09:48:14;;;;;;;2.90;1.90;;;10.50;99.90;;;;;;5059730;28;20548;-72
2024/04/02 09:50:42;;;;;;;1.93;1.60;;;10.50;99.90;;;;;;5055720;28;20596;-72
2024/04/02 09:53:10;;;;;;;3.90;1.87;;;10.50;99.90;;;;;;5056684;28;20461;-71
2024/04/02 09:55:36;;;;;;;2.07;1.87;;;10.50;99.90;;;;;;5038382;28;20808;-72
2024/04/02 09:58:02;;;;;;;6.20;1.80;;;10.40;99.90;;;;;;5059169;28;20883;-73
2024/04/02 10:00:31;;;;;;;2.80;1.93;;;10.50;99.90;;;;;;5056735;28;20480;-72
2024/04/02 10:03:00;;;;;;;1.73;1.40;;;10.40;99.90;;;;;;5075756;28;20692;-72
2024/04/02 10:05:26;;;;;;;8.60;1.80;;;10.40;99.90;;;;;;5058020;28;20572;-72
2024/04/02 10:07:52;;;;;;;2.93;1.57;;;10.40;99.90;;;;;;5059821;28;20602;-72
2024/04/02 10:10:17;;;;;;;3.00;1.27;;;10.40;99.90;;;;;;5057710;28;20720;-72
2024/04/02 10:12:51;;;;;;;1.43;1.33;;;10.30;99.90;;;;;;5055162;28;20223;-72
2024/04/02 10:15:17;;;;;;;3.97;1.50;;;10.30;99.90;;;;;;5058701;28;20356;-73
2024/04/02 10:17:43;;;;;;;12.60;2.47;;;10.30;99.90;;;;;;5058804;28;20491;-72
2024/04/02 10:20:17;;;;;;;9.17;2.70;;;10.40;99.90;;;;;;5056610;28;20568;-72
2024/04/02 10:22:43;;;;;;;5.07;1.93;;;10.50;99.90;;;;;;5057218;28;20591;-72
2024/04/02 10:25:12;;;;;;;1.60;1.20;;;10.50;99.90;;;;;;5059701;28;20568;-73
2024/04/02 10:27:42;;;;;;;6.47;1.43;;;10.50;99.90;;;;;;5054299;28;20458;-72
2024/04/02 10:30:21;;;;;;;2.57;1.20;;;10.60;99.90;;;;;;5055150;28;20468;-70
2024/04/02 10:32:48;;;;;;;1.53;1.23;;;10.50;99.90;;;;;;5053716;28;20540;-72
2024/04/02 10:35:25;;;;;;;6.20;1.53;;;10.50;99.90;;;;;;5041027;28;20502;-73
2024/04/02 10:38:00;;;;;;;3.50;1.67;;;10.60;99.90;;;;;;5057501;28;20539;-72
2024/04/02 10:40:25;;;;;;;2.30;2.10;;;10.60;99.90;;;;;;5060863;28;20476;-72
2024/04/02 10:42:52;;;;;;;2.80;1.60;;;10.50;99.90;;;;;;5040917;28;20445;-73
2024/04/02 10:45:19;;;;;;;5.63;1.93;;;10.40;99.90;;;;;;5060953;28;20593;-73
2024/04/02 10:47:50;;;;;;;15.63;1.93;;;10.50;99.90;;;;;;5055539;28;20465;-72
2024/04/02 10:50:17;;;;;;;1.90;1.20;;;10.50;99.90;;;;;;5052843;28;20604;-73
2024/04/02 10:52:44;;;;;;;10.17;1.80;;;10.60;99.90;;;;;;5057101;28;20468;-73
2024/04/02 10:55:10;;;;;;;3.40;1.83;;;10.60;99.90;;;;;;5064640;28;20607;-73
2024/04/02 10:57:38;;;;;;;1.73;1.50;;;10.60;99.90;;;;;;5065608;28;20453;-71
2024/04/02 11:00:05;;;;;;;2.90;1.30;;;10.70;99.90;;;;;;5049406;28;20469;-73
2024/04/02 11:02:34;;;;;;;2.00;1.50;;;10.70;99.90;;;;;;5064837;28;20458;-73
2024/04/02 11:04:59;;;;;;;2.07;1.57;;;10.80;99.90;;;;;;5066744;28;20441;-73
2024/04/02 11:07:29;;;;;;;2.40;1.50;;;10.90;99.90;;;;;;5065341;28;20454;-74
2024/04/02 11:09:56;;;;;;;1.63;1.23;;;10.90;99.90;;;;;;5065762;28;20283;-72
2024/04/02 11:12:23;;;;;;;2.83;1.60;;;10.90;99.90;;;;;;5066984;28;20445;-72
2024/04/02 11:14:53;;;;;;;2.70;2.10;;;10.80;99.90;;;;;;5066691;28;20872;-73
2024/04/02 11:17:20;;;;;;;2.80;1.20;;;10.80;99.90;;;;;;5067898;28;21502;-73
2024/04/02 11:19:46;;;;;;;2.93;1.80;;;10.80;99.90;;;;;;5049164;28;20445;-73
2024/04/02 11:25:08;;;;;;;1.80;1.40;;;10.80;99.90;;;;;;5066487;28;20449;-73
2024/04/02 11:27:34;;;;;;;2.60;1.40;;;10.90;99.90;;;;;;5067428;28;20461;-73
2024/04/02 11:30:00;;;;;;;1.37;1.20;;;11.00;99.90;;;;;;5068059;28;20966;-73
2024/04/02 11:32:29;;;;;;;1.40;1.20;;;11.10;99.90;;;;;;5075324;28;20265;-72
2024/04/02 11:35:03;;;;;;;1.20;1.10;;;11.10;99.90;;;;;;5065368;28;20454;-73
2024/04/02 11:37:30;;;;;;;2.10;1.40;;;11.10;99.90;;;;;;5066275;28;20492;-73
2024/04/02 11:39:57;;;;;;;1.80;1.23;;;11.10;99.90;;;;;;5025888;28;20460;-73
2024/04/02 11:42:23;;;;;;;3.83;2.80;;;11.20;99.90;;;;;;5056439;28;20481;-73
2024/04/02 11:44:57;;;;;;;1.20;1.07;;;11.20;99.90;;;;;;5060764;28;20477;-72
2024/04/02 11:47:30;;;;;;;3.37;1.23;;;11.20;99.90;;;;;;5061391;28;21010;-73
2024/04/02 11:49:56;;;;;;;3.13;1.30;;;11.20;99.90;;;;;;5063347;28;20473;-73
2024/04/02 11:52:22;;;;;;;1.10;1.10;;;11.20;99.90;;;;;;5062134;28;20496;-72
2024/04/02 11:54:47;;;;;;;2.77;1.23;;;11.20;99.90;;;;;;5058670;28;20211;-72
2024/04/02 12:00:40;;;;;;;0.80;0.80;;;11.30;99.90;;;;;;5061440;28;20220;-72
2024/04/02 12:02:48;;;;;;;1.40;0.97;;;11.30;99.90;;;;;;5046843;28;20466;-73
2024/04/02 12:05:15;;;;;;;1.43;1.13;;;11.40;99.90;;;;;;5061813;28;20453;-73
2024/04/02 12:07:42;;;;;;;1.20;1.10;;;11.70;99.90;;;;;;5044788;28;20445;-73
2024/04/02 12:10:10;;;;;;;3.43;1.20;;;11.90;99.90;;;;;;5064118;28;20461;-72
2024/04/02 12:12:36;;;;;;;1.63;1.53;;;12.10;99.90;;;;;;5056862;28;20472;-73
2024/04/02 12:15:04;;;;;;;2.13;0.87;;;12.20;99.90;;;;;;5057814;28;20453;-72
2024/04/02 12:17:30;;;;;;;1.73;1.20;;;12.30;99.90;;;;;;5058261;28;20760;-73
2024/04/02 12:19:56;;;;;;;1.93;0.80;;;12.20;99.90;;;;;;5055989;28;20846;-74
2024/04/02 12:22:22;;;;;;;2.73;1.10;;;12.30;99.90;;;;;;5065673;28;20449;-74
2024/04/02 12:24:48;;;;;;;1.67;0.90;;;12.40;99.90;;;;;;5062889;28;20301;-73
2024/04/02 12:27:14;;;;;;;2.83;1.27;;;12.50;99.90;;;;;;5061485;28;20528;-72
2024/04/02 12:29:40;;;;;;;2.40;1.33;;;12.60;99.90;;;;;;5062687;28;20537;-73
2024/04/02 12:32:10;;;;;;;3.43;0.97;;;12.80;99.90;;;;;;5059607;28;20211;-73
2024/04/02 12:34:35;;;;;;;2.53;1.23;;;12.70;99.90;;;;;;5044736;28;20214;-74
2024/04/02 12:37:02;;;;;;;5.90;1.17;;;12.70;99.90;;;;;;5064102;28;20842;-73
2024/04/02 12:39:28;;;;;;;3.80;1.37;;;12.60;99.90;;;;;;5068270;28;20236;-73
2024/04/02 12:41:55;;;;;;;2.43;1.23;;;12.50;99.90;;;;;;5065984;28;20469;-73
2024/04/02 12:44:20;;;;;;;2.20;0.70;;;12.60;99.90;;;;;;5068007;28;20469;-73
2024/04/02 12:46:46;;;;;;;4.53;1.47;;;12.80;99.90;;;;;;5068280;28;20511;-73
2024/04/02 12:49:13;;;;;;;5.60;1.40;;;12.90;99.90;;;;;;5065096;28;20215;-73
2024/04/02 12:51:39;;;;;;;7.60;1.20;;;13.10;99.90;;;;;;5067125;28;20242;-73
2024/04/02 12:54:05;;;;;;;1.40;1.10;;;13.20;99.90;;;;;;5068615;28;21190;-73
2024/04/02 12:56:31;;;;;;;1.53;1.13;;;13.30;99.90;;;;;;5064730;28;20235;-73